Time;durP1;ratioP1;P1;durP2;ratioP2;P2;SDS_P1;SDS_P2;PMS_P1;PMS_P2;Temp;Humidity;BMP_temperature;BMP_pressure;BME280_temperature;BME280_humidity;BME280_pressure;Samples;Min_cycle;Max_cycle;Signal;HPM_P1;HPM_P2
2021/01/27 00:00:21;;;;;;;13.85;8.07;;;5.30;92.30;;;;;;5034236;28;20068;-76
2021/01/27 00:02:47;;;;;;;17.27;8.10;;;5.30;92.30;;;;;;5053271;28;20033;-76
2021/01/27 00:05:17;;;;;;;14.90;8.05;;;5.30;92.30;;;;;;5053677;28;20047;-76
2021/01/27 00:07:43;;;;;;;15.13;9.32;;;5.30;92.40;;;;;;5051180;28;20024;-76
2021/01/27 00:10:09;;;;;;;16.58;8.25;;;5.30;92.40;;;;;;5052802;28;20032;-76
2021/01/27 00:12:35;;;;;;;15.90;8.65;;;5.30;92.40;;;;;;5052978;28;20038;-74
2021/01/27 00:15:04;;;;;;;15.10;9.07;;;5.30;92.40;;;;;;5033502;28;20027;-74
2021/01/27 00:17:29;;;;;;;16.48;8.55;;;5.30;92.40;;;;;;5051224;28;20028;-75
2021/01/27 00:19:55;;;;;;;16.80;9.27;;;5.30;92.40;;;;;;5053437;28;20589;-75
2021/01/27 00:22:20;;;;;;;19.35;8.88;;;5.30;92.40;;;;;;5052364;28;20117;-74
2021/01/27 00:24:46;;;;;;;19.00;10.65;;;5.30;92.40;;;;;;5053321;28;20044;-74
2021/01/27 00:27:11;;;;;;;16.02;9.35;;;5.30;92.40;;;;;;5051724;28;20167;-75
2021/01/27 00:29:36;;;;;;;20.13;10.48;;;5.30;92.40;;;;;;5051796;28;20162;-74
2021/01/27 00:32:02;;;;;;;20.52;11.93;;;5.30;92.40;;;;;;5059286;28;20032;-75
2021/01/27 00:34:28;;;;;;;22.67;10.93;;;5.30;92.50;;;;;;5053249;28;20029;-74
2021/01/27 00:36:53;;;;;;;18.25;10.80;;;5.30;92.50;;;;;;5053961;28;20519;-74
2021/01/27 00:39:19;;;;;;;19.98;10.27;;;5.30;92.60;;;;;;5053126;28;20111;-74
2021/01/27 00:41:45;;;;;;;20.20;10.93;;;5.30;92.60;;;;;;5059329;28;20385;-74
2021/01/27 00:44:10;;;;;;;20.92;12.15;;;5.30;92.60;;;;;;5052612;28;20029;-75
2021/01/27 00:46:36;;;;;;;21.13;11.50;;;5.30;92.70;;;;;;5061517;28;20094;-74
2021/01/27 00:49:03;;;;;;;18.02;10.63;;;5.30;92.60;;;;;;5052765;28;20079;-74
2021/01/27 00:51:29;;;;;;;19.67;11.27;;;5.30;92.70;;;;;;5052125;28;20029;-74
2021/01/27 00:53:55;;;;;;;16.73;9.90;;;5.30;92.60;;;;;;5052819;28;20025;-74
2021/01/27 00:56:21;;;;;;;20.98;10.50;;;5.30;92.60;;;;;;5051756;28;20063;-74
2021/01/27 00:58:48;;;;;;;20.13;12.38;;;5.30;92.70;;;;;;5066721;28;20124;-74
2021/01/27 01:01:13;;;;;;;19.17;10.75;;;5.30;92.60;;;;;;5056969;28;20024;-74
2021/01/27 01:03:39;;;;;;;19.40;11.23;;;5.30;92.60;;;;;;5052091;28;20021;-74
2021/01/27 01:06:04;;;;;;;20.67;10.90;;;5.30;92.60;;;;;;5051615;28;20025;-75
2021/01/27 01:08:30;;;;;;;18.13;10.50;;;5.30;92.60;;;;;;5050071;28;20037;-75
2021/01/27 01:10:59;;;;;;;19.77;10.50;;;5.30;92.60;;;;;;5036484;28;20018;-74
2021/01/27 01:13:26;;;;;;;17.30;9.32;;;5.30;92.60;;;;;;5032272;28;20029;-74
2021/01/27 01:15:53;;;;;;;17.02;10.00;;;5.30;92.60;;;;;;5031924;28;20064;-74
2021/01/27 01:18:19;;;;;;;18.05;9.82;;;5.30;92.50;;;;;;5051183;28;20068;-74
2021/01/27 01:20:45;;;;;;;17.88;10.50;;;5.30;92.50;;;;;;5066192;28;20059;-74
2021/01/27 01:23:11;;;;;;;16.48;9.57;;;5.30;92.60;;;;;;5046770;28;20033;-75
2021/01/27 01:25:37;;;;;;;17.10;9.70;;;5.30;92.50;;;;;;5046724;28;20033;-75
2021/01/27 01:28:04;;;;;;;19.15;10.32;;;5.30;92.50;;;;;;5050612;28;20398;-74
2021/01/27 01:30:32;;;;;;;16.95;9.80;;;5.30;92.60;;;;;;5066284;28;20024;-75
2021/01/27 01:33:04;;;;;;;19.50;10.88;;;5.30;92.60;;;;;;5036961;28;20436;-73
2021/01/27 01:35:29;;;;;;;19.75;10.55;;;5.30;92.50;;;;;;5048956;28;20158;-72
2021/01/27 01:37:55;;;;;;;19.25;10.85;;;5.30;92.60;;;;;;5051886;28;20135;-72
2021/01/27 01:40:24;;;;;;;19.40;10.20;;;5.30;92.60;;;;;;5050670;28;20029;-74
2021/01/27 01:43:07;;;;;;;15.75;9.50;;;5.30;92.60;;;;;;5049617;28;20170;-73
2021/01/27 01:45:42;;;;;;;18.83;10.32;;;5.30;92.60;;;;;;5068598;28;20032;-73
2021/01/27 01:48:23;;;;;;;19.33;9.85;;;5.30;92.50;;;;;;5050539;28;20037;-73
2021/01/27 01:50:52;;;;;;;19.30;9.90;;;5.30;92.50;;;;;;5051429;28;20123;-73
2021/01/27 01:53:19;;;;;;;16.50;9.18;;;5.30;92.40;;;;;;5052507;28;20037;-74
2021/01/27 01:55:45;;;;;;;17.50;9.05;;;5.30;92.50;;;;;;5070990;28;20072;-74
2021/01/27 01:58:11;;;;;;;20.33;9.48;;;5.30;92.40;;;;;;5059499;28;20420;-76
2021/01/27 02:00:39;;;;;;;17.75;8.77;;;5.30;92.50;;;;;;5051851;28;20025;-74
2021/01/27 02:03:09;;;;;;;16.65;8.85;;;5.30;92.50;;;;;;5051646;28;20044;-74
2021/01/27 02:05:35;;;;;;;20.27;9.05;;;5.30;92.40;;;;;;5053465;28;20044;-75
2021/01/27 02:08:00;;;;;;;18.40;9.00;;;5.20;92.40;;;;;;5048454;28;20515;-74
2021/01/27 02:10:26;;;;;;;18.52;10.18;;;5.20;92.40;;;;;;5051647;28;20021;-75
2021/01/27 02:13:28;;;;;;;18.67;8.95;;;5.20;92.30;;;;;;5049761;28;20424;-75
2021/01/27 02:16:04;;;;;;;19.88;10.43;;;5.20;92.40;;;;;;5051834;28;20042;-74
2021/01/27 02:18:50;;;;;;;16.58;8.70;;;5.20;92.40;;;;;;5050967;28;20041;-73
2021/01/27 02:21:35;;;;;;;14.90;8.65;;;5.20;92.30;;;;;;5049773;28;20041;-73
2021/01/27 02:24:20;;;;;;;18.90;9.45;;;5.10;92.40;;;;;;5057160;28;20033;-74
2021/01/27 02:27:08;;;;;;;21.05;9.73;;;5.10;92.40;;;;;;5054810;28;20024;-75
2021/01/27 02:29:55;;;;;;;16.45;9.32;;;5.00;92.40;;;;;;5050304;28;20068;-75
2021/01/27 02:32:58;;;;;;;18.48;9.57;;;4.90;92.50;;;;;;5049916;28;20037;-75
2021/01/27 02:35:49;;;;;;;17.42;9.20;;;4.90;92.40;;;;;;5050046;28;20028;-74
2021/01/27 02:38:29;;;;;;;21.65;10.00;;;4.90;92.40;;;;;;5051281;28;20066;-75
2021/01/27 02:41:12;;;;;;;19.05;9.00;;;4.80;92.50;;;;;;5049984;28;20116;-76
2021/01/27 02:43:43;;;;;;;17.92;9.77;;;4.80;92.50;;;;;;5049830;28;20107;-75
2021/01/27 02:46:27;;;;;;;16.42;9.27;;;4.80;92.60;;;;;;5050439;28;20095;-76
2021/01/27 02:49:00;;;;;;;19.63;10.07;;;4.70;92.60;;;;;;5050964;28;20033;-76
2021/01/27 02:51:35;;;;;;;19.73;10.40;;;4.70;92.70;;;;;;5053360;28;20037;-76
2021/01/27 02:54:19;;;;;;;23.13;9.52;;;4.60;92.70;;;;;;5054539;28;20052;-77
2021/01/27 02:57:01;;;;;;;17.48;9.85;;;4.60;92.70;;;;;;5040872;28;20063;-77
2021/01/27 02:59:39;;;;;;;18.10;10.10;;;4.60;92.70;;;;;;5062113;28;20123;-75
2021/01/27 03:02:11;;;;;;;18.45;9.88;;;4.60;92.80;;;;;;5054972;28;20032;-75
2021/01/27 03:04:52;;;;;;;17.95;9.30;;;4.50;92.80;;;;;;5052486;28;20033;-75
2021/01/27 03:07:19;;;;;;;19.02;10.02;;;4.50;92.90;;;;;;5055145;28;20091;-75
2021/01/27 03:09:55;;;;;;;19.33;9.40;;;4.40;92.80;;;;;;5060910;28;20384;-75
2021/01/27 03:12:20;;;;;;;20.70;10.57;;;4.40;92.90;;;;;;5053617;28;20033;-75
2021/01/27 03:14:46;;;;;;;21.60;10.82;;;4.40;92.90;;;;;;5063703;28;20033;-76
2021/01/27 03:17:15;;;;;;;17.45;9.38;;;4.30;92.90;;;;;;5053255;28;20021;-75
2021/01/27 03:20:02;;;;;;;18.17;10.35;;;4.30;92.90;;;;;;5063310;28;20028;-74
2021/01/27 03:23:05;;;;;;;24.27;10.88;;;4.30;93.00;;;;;;5054445;28;20033;-75
2021/01/27 03:25:34;;;;;;;20.38;9.93;;;4.20;93.10;;;;;;5045819;28;20075;-76
2021/01/27 03:28:26;;;;;;;21.40;10.55;;;4.10;93.10;;;;;;5052884;28;20039;-75
2021/01/27 03:30:53;;;;;;;23.33;11.02;;;4.10;93.20;;;;;;5052366;28;20082;-75
2021/01/27 03:33:25;;;;;;;21.80;10.48;;;4.10;93.30;;;;;;5053900;28;20037;-75
2021/01/27 03:35:57;;;;;;;18.52;10.73;;;4.00;93.30;;;;;;5064250;28;20066;-74
2021/01/27 03:38:47;;;;;;;19.80;10.30;;;4.00;93.40;;;;;;5065490;28;20135;-75
2021/01/27 03:41:29;;;;;;;21.13;11.60;;;4.00;93.40;;;;;;5053338;28;20840;-75
2021/01/27 03:44:19;;;;;;;20.75;11.15;;;4.00;93.40;;;;;;5054584;28;20041;-75
2021/01/27 03:47:02;;;;;;;21.15;11.02;;;4.00;93.40;;;;;;5052885;28;20033;-75
2021/01/27 03:49:34;;;;;;;18.50;9.70;;;4.00;93.50;;;;;;5067112;28;20032;-76
2021/01/27 03:52:07;;;;;;;22.17;11.20;;;3.90;93.50;;;;;;5052604;28;20033;-76
2021/01/27 03:54:35;;;;;;;19.75;10.32;;;3.90;93.60;;;;;;5066264;28;20116;-76
2021/01/27 03:57:12;;;;;;;24.17;11.43;;;3.90;93.60;;;;;;5053550;28;20084;-78
2021/01/27 03:59:38;;;;;;;22.02;11.25;;;3.80;93.60;;;;;;5046808;28;20041;-75
2021/01/27 04:02:13;;;;;;;23.30;11.60;;;3.80;93.70;;;;;;5049218;28;20394;-74
2021/01/27 04:04:39;;;;;;;21.10;10.95;;;3.80;93.80;;;;;;5066947;28;20107;-74
2021/01/27 04:07:04;;;;;;;22.55;11.88;;;3.80;93.70;;;;;;5047841;28;20443;-74
2021/01/27 04:09:30;;;;;;;23.40;12.18;;;3.80;93.80;;;;;;5058231;28;20023;-74
2021/01/27 04:11:55;;;;;;;24.50;10.70;;;3.80;93.80;;;;;;5055427;28;20021;-75
2021/01/27 04:14:21;;;;;;;21.17;11.23;;;3.80;93.80;;;;;;5052392;28;20055;-74
2021/01/27 04:16:46;;;;;;;20.90;11.70;;;3.80;93.90;;;;;;5053061;28;20389;-75
2021/01/27 04:19:12;;;;;;;21.00;11.32;;;3.80;93.90;;;;;;5068654;28;20050;-75
2021/01/27 04:21:37;;;;;;;22.77;11.48;;;3.80;94.00;;;;;;5051751;28;20025;-74
2021/01/27 04:24:04;;;;;;;24.58;12.43;;;3.80;94.00;;;;;;5052411;28;20485;-75
2021/01/27 04:26:29;;;;;;;22.65;11.40;;;3.90;94.10;;;;;;5048484;28;20025;-75
2021/01/27 04:28:55;;;;;;;21.13;11.68;;;3.90;94.10;;;;;;5068032;28;20366;-75
2021/01/27 04:31:21;;;;;;;21.13;11.88;;;3.90;94.10;;;;;;5050740;28;20021;-75
2021/01/27 04:33:46;;;;;;;24.77;11.98;;;3.90;94.20;;;;;;5070393;28;20032;-75
2021/01/27 04:36:12;;;;;;;21.30;11.73;;;3.90;94.20;;;;;;5053486;28;20136;-75
2021/01/27 04:38:38;;;;;;;21.02;12.20;;;4.00;94.20;;;;;;5069776;28;20036;-75
2021/01/27 04:41:03;;;;;;;25.15;12.85;;;4.00;94.20;;;;;;5055021;28;20037;-74
2021/01/27 04:43:33;;;;;;;22.08;12.63;;;4.00;94.20;;;;;;5052800;28;20051;-75
2021/01/27 04:46:03;;;;;;;21.85;11.73;;;4.10;94.50;;;;;;5051725;28;20025;-75
2021/01/27 04:48:39;;;;;;;19.60;11.98;;;4.10;94.20;;;;;;5052432;28;20040;-74
2021/01/27 04:51:13;;;;;;;24.60;12.82;;;4.10;94.30;;;;;;5053325;28;20036;-74
2021/01/27 04:54:15;;;;;;;23.55;12.32;;;4.10;94.30;;;;;;5058421;28;20546;-75
2021/01/27 04:56:57;;;;;;;25.38;13.60;;;4.10;94.20;;;;;;5055513;28;20044;-75
2021/01/27 05:00:00;;;;;;;23.70;12.40;;;4.20;94.20;;;;;;5079566;28;20586;-75
2021/01/27 05:02:45;;;;;;;26.73;13.77;;;4.20;94.30;;;;;;5062179;28;20057;-75
2021/01/27 05:05:14;;;;;;;25.70;13.95;;;4.20;94.30;;;;;;5054954;28;20067;-75
2021/01/27 05:07:43;;;;;;;24.30;14.02;;;4.20;94.30;;;;;;5048694;28;20052;-76
2021/01/27 05:10:15;;;;;;;25.30;13.60;;;4.20;94.40;;;;;;5036964;28;20022;-76
2021/01/27 05:12:49;;;;;;;30.63;15.27;;;4.20;94.40;;;;;;5072665;28;20020;-76
2021/01/27 05:15:16;;;;;;;27.23;13.90;;;4.20;94.40;;;;;;5061261;28;20069;-76
2021/01/27 05:17:44;;;;;;;30.20;15.90;;;4.30;94.40;;;;;;5062198;28;20485;-76
2021/01/27 05:20:15;;;;;;;28.80;13.75;;;4.30;94.40;;;;;;5051203;28;20125;-77
2021/01/27 05:22:41;;;;;;;28.65;14.25;;;4.30;94.50;;;;;;5051478;28;20017;-78
2021/01/27 05:25:12;;;;;;;29.10;15.82;;;4.30;94.50;;;;;;5053427;28;20092;-78
2021/01/27 05:27:39;;;;;;;26.55;15.13;;;4.30;94.50;;;;;;5056523;28;20128;-78
2021/01/27 05:30:04;;;;;;;26.75;14.77;;;4.30;94.50;;;;;;5051994;28;20033;-78
2021/01/27 05:32:50;;;;;;;30.85;16.13;;;4.40;94.60;;;;;;5072603;28;20082;-77
2021/01/27 05:35:37;;;;;;;30.35;16.02;;;4.40;94.70;;;;;;5064261;28;20366;-78
2021/01/27 05:38:21;;;;;;;30.95;16.77;;;4.40;94.70;;;;;;5062129;28;20056;-78
2021/01/27 05:40:46;;;;;;;30.23;15.82;;;4.40;94.60;;;;;;5067393;28;20588;-79
2021/01/27 05:43:22;;;;;;;31.70;16.73;;;4.50;94.70;;;;;;5072598;28;20016;-78
2021/01/27 05:45:49;;;;;;;32.00;16.75;;;4.50;94.70;;;;;;5053638;28;20384;-78
2021/01/27 05:48:29;;;;;;;34.67;17.02;;;4.50;94.70;;;;;;5051490;28;20029;-78
2021/01/27 05:51:13;;;;;;;32.88;18.17;;;4.50;94.70;;;;;;5051208;28;20025;-78
2021/01/27 05:53:38;;;;;;;35.40;17.95;;;4.60;94.70;;;;;;5052324;28;20021;-78
2021/01/27 05:56:09;;;;;;;39.03;18.83;;;4.60;94.70;;;;;;5050925;28;20383;-78
2021/01/27 05:58:37;;;;;;;34.33;18.65;;;4.60;94.70;;;;;;5050450;28;20067;-77
2021/01/27 06:01:18;;;;;;;32.50;17.85;;;4.60;94.80;;;;;;5061647;28;20436;-76
2021/01/27 06:04:02;;;;;;;34.25;17.80;;;4.70;95.00;;;;;;5061342;28;20036;-73
2021/01/27 06:06:32;;;;;;;34.17;18.30;;;4.70;94.70;;;;;;5049832;28;20021;-70
2021/01/27 06:08:59;;;;;;;36.00;18.20;;;4.70;94.90;;;;;;5057887;28;20055;-77
2021/01/27 06:11:26;;;;;;;37.22;19.33;;;4.70;94.70;;;;;;5049552;28;20037;-73
2021/01/27 06:14:08;;;;;;;37.47;19.10;;;4.80;94.60;;;;;;5044584;28;20344;-73
2021/01/27 06:16:43;;;;;;;35.38;19.73;;;4.80;94.60;;;;;;5046754;28;20489;-73
2021/01/27 06:19:12;;;;;;;35.42;18.90;;;4.80;94.60;;;;;;5057265;28;20041;-72
2021/01/27 06:22:08;;;;;;;37.97;18.58;;;4.80;94.60;;;;;;5048454;28;20036;-73
2021/01/27 06:25:05;;;;;;;41.15;19.75;;;4.80;94.60;;;;;;5048939;28;20021;-73
2021/01/27 06:27:55;;;;;;;31.70;18.88;;;4.90;94.60;;;;;;5054577;28;20038;-73
2021/01/27 06:30:50;;;;;;;37.15;18.90;;;4.90;94.60;;;;;;5053826;28;20035;-72
2021/01/27 06:33:29;;;;;;;38.83;19.33;;;4.90;94.50;;;;;;5055572;28;20104;-73
2021/01/27 06:36:31;;;;;;;38.13;19.15;;;4.90;94.50;;;;;;5053975;28;20317;-73
2021/01/27 06:39:31;;;;;;;33.58;18.40;;;4.90;94.40;;;;;;5053877;28;20048;-73
2021/01/27 06:42:15;;;;;;;33.80;17.63;;;4.90;94.40;;;;;;5035878;28;20033;-73
2021/01/27 06:45:00;;;;;;;36.10;17.73;;;5.00;94.40;;;;;;5068169;28;20134;-73
2021/01/27 06:47:52;;;;;;;32.13;16.45;;;5.00;94.40;;;;;;5046509;28;20051;-73
2021/01/27 06:50:28;;;;;;;33.22;17.75;;;5.00;94.40;;;;;;5053629;28;20033;-73
2021/01/27 06:53:15;;;;;;;32.00;16.75;;;5.00;94.30;;;;;;5054885;28;20025;-73
2021/01/27 06:55:50;;;;;;;35.83;18.73;;;5.00;94.40;;;;;;5054026;28;20091;-73
2021/01/27 06:58:54;;;;;;;36.13;18.25;;;5.00;94.30;;;;;;5054535;28;20041;-72
2021/01/27 07:01:57;;;;;;;32.63;17.50;;;5.00;94.40;;;;;;5052955;28;20056;-71
2021/01/27 07:04:45;;;;;;;36.97;17.75;;;5.00;94.40;;;;;;5054204;28;20435;-73
2021/01/27 07:07:39;;;;;;;32.78;17.42;;;5.00;94.40;;;;;;5055657;28;20108;-72
2021/01/27 07:10:22;;;;;;;33.70;17.58;;;5.00;94.40;;;;;;5062760;28;20021;-72
2021/01/27 07:12:59;;;;;;;31.92;17.48;;;5.00;94.40;;;;;;5065045;28;20115;-71
2021/01/27 07:15:27;;;;;;;35.65;19.40;;;5.00;94.50;;;;;;5061028;28;20554;-71
2021/01/27 07:18:08;;;;;;;31.65;17.27;;;5.00;94.50;;;;;;5066871;28;20039;-72
2021/01/27 07:20:48;;;;;;;37.63;18.23;;;5.10;94.40;;;;;;5060105;28;20388;-71
2021/01/27 07:23:38;;;;;;;33.42;17.95;;;5.10;94.40;;;;;;5067863;28;20032;-72
2021/01/27 07:26:17;;;;;;;33.85;16.88;;;5.10;94.40;;;;;;5050859;28;20083;-72
2021/01/27 07:29:15;;;;;;;35.63;18.60;;;5.10;94.40;;;;;;5048848;28;20026;-70
2021/01/27 07:31:52;;;;;;;33.03;18.02;;;5.10;94.40;;;;;;5015085;28;20140;-70
2021/01/27 07:34:27;;;;;;;34.70;17.23;;;5.10;94.40;;;;;;5036409;28;20048;-70
2021/01/27 07:37:28;;;;;;;30.88;17.00;;;5.10;94.30;;;;;;5052848;28;20033;-68
2021/01/27 07:40:13;;;;;;;31.55;17.05;;;5.10;94.20;;;;;;5041539;28;20033;-70
2021/01/27 07:42:58;;;;;;;;;;;5.20;94.20;;;;;;5052065;28;20518;-69
2021/01/27 07:45:28;;;;;;;31.42;18.08;;;5.10;94.20;;;;;;5044832;28;19908;-70
2021/01/27 07:48:15;;;;;;;31.45;16.52;;;5.10;94.20;;;;;;5064188;28;20029;-71
2021/01/27 07:50:46;;;;;;;31.15;16.55;;;5.10;94.20;;;;;;5056324;28;20021;-70
2021/01/27 07:53:19;;;;;;;34.42;17.45;;;5.10;94.20;;;;;;5071026;28;20025;-68
2021/01/27 07:55:53;;;;;;;33.03;18.25;;;5.20;94.20;;;;;;5058120;28;20060;-68
2021/01/27 07:58:42;;;;;;;29.80;17.67;;;5.20;94.20;;;;;;5062888;28;20043;-70
2021/01/27 08:01:13;;;;;;;29.67;16.70;;;5.20;94.20;;;;;;5056902;28;20024;-66
2021/01/27 08:03:44;;;;;;;30.90;16.92;;;5.20;94.10;;;;;;5073621;28;20056;-69
2021/01/27 08:06:17;;;;;;;33.20;17.27;;;5.20;94.10;;;;;;5064003;28;20012;-70
2021/01/27 08:09:03;;;;;;;39.40;17.42;;;5.20;94.10;;;;;;5068270;28;20029;-70
2021/01/27 08:11:30;;;;;;;34.63;16.58;;;5.30;94.10;;;;;;5053222;28;20037;-70
2021/01/27 08:13:56;;;;;;;31.33;15.98;;;5.30;94.00;;;;;;5060026;28;20071;-70
2021/01/27 08:16:26;;;;;;;30.25;16.38;;;5.30;94.00;;;;;;5042876;28;20020;-69
2021/01/27 08:19:07;;;;;;;26.33;14.52;;;5.40;94.00;;;;;;5054423;28;20035;-70
2021/01/27 08:21:52;;;;;;;29.13;14.98;;;5.40;93.90;;;;;;5044690;28;20112;-70
2021/01/27 08:24:36;;;;;;;27.60;15.05;;;5.50;93.80;;;;;;5041114;28;20478;-71
2021/01/27 08:27:10;;;;;;;32.45;15.93;;;5.50;93.80;;;;;;5045114;28;20026;-70
2021/01/27 08:29:56;;;;;;;28.45;15.82;;;5.50;93.70;;;;;;5047742;28;20307;-71
2021/01/27 08:32:45;;;;;;;;;;;5.50;93.70;;;;;;5053671;28;20033;-71
2021/01/27 08:35:36;;;;;;;30.25;15.70;;;5.50;93.80;;;;;;5054985;28;20301;-71
2021/01/27 08:38:26;;;;;;;28.65;16.80;;;5.50;93.70;;;;;;5032036;28;20030;-71
2021/01/27 08:40:52;;;;;;;27.60;15.77;;;5.50;93.70;;;;;;5051570;28;20119;-71
2021/01/27 08:43:19;;;;;;;28.70;15.40;;;5.50;93.70;;;;;;5057700;28;20024;-71
2021/01/27 08:45:46;;;;;;;25.42;15.50;;;5.60;93.70;;;;;;5052187;28;20036;-71
2021/01/27 08:48:16;;;;;;;28.30;15.65;;;5.60;93.70;;;;;;5056206;28;20127;-71
2021/01/27 08:50:48;;;;;;;27.40;16.52;;;5.70;93.70;;;;;;5053841;28;20025;-71
2021/01/27 08:53:17;;;;;;;26.45;15.48;;;5.70;93.60;;;;;;5055457;28;20028;-69
2021/01/27 08:55:46;;;;;;;30.27;16.13;;;5.70;93.60;;;;;;5053641;28;20045;-69
2021/01/27 08:58:20;;;;;;;28.92;15.82;;;5.70;93.60;;;;;;5051975;28;20044;-69
2021/01/27 09:00:47;;;;;;;35.20;16.75;;;5.80;93.60;;;;;;5041521;28;20496;-69
2021/01/27 09:03:37;;;;;;;27.55;16.85;;;5.80;93.60;;;;;;5036312;28;20045;-68
2021/01/27 09:06:25;;;;;;;29.90;15.35;;;5.80;93.60;;;;;;5058265;28;20013;-68
2021/01/27 09:08:54;;;;;;;29.10;16.35;;;5.80;93.60;;;;;;5066736;28;20039;-69
2021/01/27 09:11:21;;;;;;;32.25;18.98;;;5.80;93.60;;;;;;5050775;28;20110;-69
2021/01/27 09:13:47;;;;;;;30.42;15.85;;;5.80;93.70;;;;;;5052152;28;20025;-69
2021/01/27 09:16:16;;;;;;;28.88;17.20;;;5.80;93.70;;;;;;5051144;28;20373;-69
2021/01/27 09:18:52;;;;;;;27.50;15.80;;;5.90;93.80;;;;;;5044297;28;20040;-69
2021/01/27 09:21:20;;;;;;;33.65;16.98;;;5.90;93.60;;;;;;5047476;28;20048;-69
2021/01/27 09:23:54;;;;;;;32.83;17.67;;;5.90;93.70;;;;;;5056983;28;20036;-69
2021/01/27 09:26:38;;;;;;;32.83;18.25;;;6.00;93.70;;;;;;5050059;28;20025;-69
2021/01/27 09:29:28;;;;;;;28.90;16.92;;;6.00;93.70;;;;;;5050692;28;20033;-69
2021/01/27 09:31:55;;;;;;;30.17;17.35;;;6.00;93.70;;;;;;5049969;28;20021;-69
2021/01/27 09:34:30;;;;;;;27.80;17.15;;;6.00;93.80;;;;;;5046944;28;20057;-68
2021/01/27 09:37:04;;;;;;;;;;;6.00;93.70;;;;;;5046142;28;20032;-68
2021/01/27 09:39:35;;;;;;;31.00;16.75;;;6.10;93.80;;;;;;5059930;28;19975;-69
2021/01/27 09:42:16;;;;;;;31.40;18.88;;;6.10;93.60;;;;;;5031804;28;20386;-69
2021/01/27 09:44:42;;;;;;;28.27;17.80;;;6.10;93.90;;;;;;5047857;28;20048;-69
2021/01/27 09:47:11;;;;;;;36.47;20.90;;;6.20;93.70;;;;;;5042326;28;20048;-69
2021/01/27 09:49:46;;;;;;;33.15;19.80;;;6.20;93.70;;;;;;5060692;28;20043;-69
2021/01/27 09:52:12;;;;;;;30.30;17.92;;;6.20;93.70;;;;;;5047255;28;20021;-69
2021/01/27 09:54:41;;;;;;;30.38;16.80;;;6.20;93.70;;;;;;5060980;28;20040;-69
2021/01/27 09:57:11;;;;;;;25.88;15.32;;;6.30;93.60;;;;;;5050224;28;20044;-69
2021/01/27 09:59:37;;;;;;;24.58;15.23;;;6.40;93.40;;;;;;5049916;28;20044;-69
2021/01/27 10:02:03;;;;;;;24.42;13.98;;;6.40;93.40;;;;;;5038740;28;20021;-69
2021/01/27 10:04:35;;;;;;;24.10;14.35;;;6.50;93.20;;;;;;5062286;28;20029;-69
2021/01/27 10:07:15;;;;;;;26.20;15.05;;;6.50;93.00;;;;;;5038301;28;20052;-69
2021/01/27 10:09:57;;;;;;;23.75;13.43;;;6.50;93.00;;;;;;5061465;28;20121;-69
2021/01/27 10:12:28;;;;;;;23.88;14.27;;;6.50;92.80;;;;;;5050396;28;20027;-69
2021/01/27 10:15:22;;;;;;;23.20;14.00;;;6.60;92.60;;;;;;5034961;28;20029;-69
2021/01/27 10:18:01;;;;;;;24.98;14.52;;;6.60;92.50;;;;;;5038847;28;20068;-69
2021/01/27 10:20:30;;;;;;;25.45;13.57;;;6.60;92.60;;;;;;5044195;28;20108;-68
2021/01/27 10:23:01;;;;;;;26.58;15.15;;;6.60;92.50;;;;;;5064562;28;20052;-71
2021/01/27 10:25:39;;;;;;;28.02;15.55;;;6.50;92.50;;;;;;5048177;28;20040;-69
2021/01/27 10:28:22;;;;;;;23.92;15.20;;;6.50;92.40;;;;;;5050589;28;20385;-68
2021/01/27 10:30:57;;;;;;;24.60;15.50;;;6.40;92.30;;;;;;5049797;28;20033;-70
2021/01/27 10:33:33;;;;;;;25.30;15.27;;;6.40;92.30;;;;;;5051569;28;20088;-70
2021/01/27 10:35:59;;;;;;;25.13;13.88;;;6.40;92.20;;;;;;5047071;28;20021;-70
2021/01/27 10:38:25;;;;;;;24.33;14.00;;;6.40;92.20;;;;;;5046349;28;20773;-70
2021/01/27 10:41:07;;;;;;;23.70;14.88;;;6.40;92.30;;;;;;5039813;28;20112;-70
2021/01/27 10:43:33;;;;;;;23.95;14.10;;;6.30;92.30;;;;;;5048341;28;20029;-69
2021/01/27 10:45:58;;;;;;;24.73;14.38;;;6.40;92.30;;;;;;5039573;28;20528;-70
2021/01/27 10:48:29;;;;;;;25.63;14.55;;;6.40;92.20;;;;;;5037706;28;20024;-69
2021/01/27 10:51:06;;;;;;;24.10;14.80;;;6.40;92.30;;;;;;5050073;28;20028;-69
2021/01/27 10:53:40;;;;;;;25.92;14.18;;;6.50;92.20;;;;;;5039568;28;20029;-70
2021/01/27 10:56:06;;;;;;;23.95;14.27;;;6.40;92.30;;;;;;5049295;28;20123;-70
2021/01/27 10:58:32;;;;;;;25.55;14.68;;;6.50;92.10;;;;;;5049381;28;20397;-69
2021/01/27 11:00:58;;;;;;;22.65;13.00;;;6.50;92.10;;;;;;5050970;28;20021;-69
2021/01/27 11:03:23;;;;;;;27.20;14.50;;;6.50;92.10;;;;;;5046265;28;20453;-69
2021/01/27 11:05:49;;;;;;;22.83;14.63;;;6.50;92.00;;;;;;5041675;28;20507;-69
2021/01/27 11:08:24;;;;;;;24.23;14.27;;;6.50;92.00;;;;;;5049603;28;20561;-69
2021/01/27 11:10:50;;;;;;;22.77;13.10;;;6.50;92.00;;;;;;5050827;28;20770;-69
2021/01/27 11:13:16;;;;;;;26.38;14.13;;;6.60;91.90;;;;;;5053396;28;20036;-69
2021/01/27 11:15:41;;;;;;;21.95;12.60;;;6.60;91.80;;;;;;5054275;28;20032;-69
2021/01/27 11:18:07;;;;;;;24.75;14.32;;;6.60;91.80;;;;;;5050862;28;20055;-70
2021/01/27 11:20:32;;;;;;;23.08;13.98;;;6.70;91.70;;;;;;5053891;28;20024;-69
2021/01/27 11:22:58;;;;;;;26.25;14.88;;;6.70;91.60;;;;;;5052212;28;20040;-70
2021/01/27 11:25:26;;;;;;;23.15;13.93;;;6.70;91.70;;;;;;5052935;28;20037;-69
2021/01/27 11:27:52;;;;;;;24.02;13.85;;;6.70;91.70;;;;;;5054252;28;20029;-69
2021/01/27 11:30:21;;;;;;;21.48;13.30;;;6.80;91.50;;;;;;5053510;28;20481;-69
2021/01/27 11:32:47;;;;;;;25.65;14.48;;;6.80;91.40;;;;;;5053908;28;20032;-69
2021/01/27 11:35:14;;;;;;;22.77;12.73;;;6.90;91.30;;;;;;5053827;28;20029;-69
2021/01/27 11:37:39;;;;;;;26.02;14.20;;;6.90;91.50;;;;;;5053845;28;20485;-69
2021/01/27 11:40:06;;;;;;;23.30;13.63;;;6.90;91.40;;;;;;5053325;28;20035;-69
2021/01/27 11:42:32;;;;;;;24.02;14.10;;;7.00;91.50;;;;;;5052257;28;20048;-69
2021/01/27 11:44:57;;;;;;;23.60;13.25;;;7.00;91.10;;;;;;5052227;28;20621;-69
2021/01/27 11:47:23;;;;;;;20.65;12.55;;;7.00;91.10;;;;;;5054025;28;20028;-70
2021/01/27 11:49:49;;;;;;;22.75;13.48;;;7.00;91.00;;;;;;5053222;28;20029;-69
2021/01/27 11:52:16;;;;;;;26.33;14.13;;;7.10;91.00;;;;;;5052534;28;20493;-70
2021/01/27 11:54:41;;;;;;;21.52;13.55;;;7.10;90.90;;;;;;5054138;28;20082;-70
2021/01/27 11:57:07;;;;;;;22.02;13.43;;;7.10;90.90;;;;;;5047525;28;20045;-69
2021/01/27 11:59:34;;;;;;;22.10;12.45;;;7.10;90.80;;;;;;5051497;28;20044;-70
2021/01/27 12:02:00;;;;;;;19.45;12.23;;;7.10;90.70;;;;;;5052041;28;20424;-70
2021/01/27 12:04:26;;;;;;;22.55;12.63;;;7.20;90.60;;;;;;5053328;28;20537;-69
2021/01/27 12:06:51;;;;;;;19.58;12.38;;;7.20;90.40;;;;;;5052563;28;20180;-70
2021/01/27 12:09:17;;;;;;;21.23;12.68;;;7.30;90.40;;;;;;5051264;28;20108;-70
2021/01/27 12:11:43;;;;;;;18.85;11.63;;;7.40;90.30;;;;;;5052687;28;20479;-70
2021/01/27 12:14:09;;;;;;;17.13;10.70;;;7.40;90.20;;;;;;5053200;28;20545;-69
2021/01/27 12:16:34;;;;;;;17.88;11.43;;;7.50;90.30;;;;;;5041085;28;20029;-69
2021/01/27 12:19:00;;;;;;;16.80;10.48;;;7.50;90.00;;;;;;5052929;28;20397;-70
2021/01/27 12:21:25;;;;;;;19.13;9.80;;;7.60;89.60;;;;;;5040776;28;20116;-68
2021/01/27 12:23:51;;;;;;;17.33;9.07;;;7.60;89.20;;;;;;5051816;28;20385;-69
2021/01/27 12:26:16;;;;;;;15.65;9.77;;;7.70;88.90;;;;;;5052734;28;20064;-70
2021/01/27 12:28:42;;;;;;;13.80;9.07;;;7.80;88.50;;;;;;5051575;28;20085;-70
2021/01/27 12:31:09;;;;;;;16.35;9.43;;;7.80;88.10;;;;;;5051680;28;20028;-70
2021/01/27 12:33:34;;;;;;;13.90;9.25;;;7.90;87.40;;;;;;5051856;28;20036;-69
2021/01/27 12:36:00;;;;;;;14.00;9.25;;;7.90;86.80;;;;;;5055292;28;20024;-69
2021/01/27 12:38:25;;;;;;;15.65;8.77;;;7.90;86.40;;;;;;5050455;28;20443;-69
2021/01/27 12:40:51;;;;;;;13.73;8.68;;;8.00;85.90;;;;;;5051276;28;20047;-69
2021/01/27 12:43:17;;;;;;;12.40;8.18;;;8.00;85.20;;;;;;5032610;28;20056;-70
2021/01/27 12:45:43;;;;;;;12.98;8.15;;;8.00;84.80;;;;;;5048300;28;20036;-69
2021/01/27 12:48:09;;;;;;;12.25;7.85;;;8.00;84.70;;;;;;5051775;28;20017;-70
2021/01/27 12:50:34;;;;;;;11.77;7.35;;;8.00;83.30;;;;;;5050209;28;20033;-70
2021/01/27 12:53:00;;;;;;;14.32;8.57;;;8.00;82.90;;;;;;5062143;28;20515;-70
2021/01/27 12:55:25;;;;;;;11.48;7.50;;;8.00;82.90;;;;;;5057145;28;20045;-70
2021/01/27 12:57:51;;;;;;;14.27;8.40;;;8.00;82.60;;;;;;5052327;28;20040;-70
2021/01/27 13:00:24;;;;;;;12.13;8.48;;;8.10;82.60;;;;;;5038504;28;20057;-70
2021/01/27 13:02:51;;;;;;;16.92;9.18;;;8.20;82.60;;;;;;5040257;28;20032;-70
2021/01/27 13:05:18;;;;;;;16.50;8.68;;;8.20;82.50;;;;;;5049083;28;20041;-71
2021/01/27 13:07:43;;;;;;;16.05;9.35;;;8.20;82.60;;;;;;5050236;28;20033;-69
2021/01/27 13:10:09;;;;;;;13.95;8.73;;;8.30;82.40;;;;;;5051582;28;20033;-69